Ride Results

Bendigo (28-07-1996)
Ride distance: 80.0 km

Outcomes - Bendigo (28-07-1996)
Division No. of Entries Retired / DNE Completed Withdrawn Ineligible V/O Percentage Completed
HW 12 - 12 - - - 100.00%
MW 18 - 15 - - 3 83.33%
LW 16 - 15 1 - - 93.75%
JN 8 - 6 - - 2 75.00%
Totals 54 - 48 1 - 5 88.89%
Results - Bendigo (28-07-1996)
No. Rider Horse Place Time Leg Speeds Total
Km/Hr
H/R bpm
Heavyweight
92 Ken Allan Salah El Saadraan 1 3:14:00 22.2, 27.9 24.74 29, 38, 51 (Avg:44)
89 Teena Pearse Little Dood 2 3:57:00 19.0, 21.6 20.25 34, 48, 52 (Avg:50)
84 Robert Punicki Brieema Mcinness 2 3:57:00 20.1, 20.3 20.25 37, 38, 51 (Avg:44)
81 Fred Muller Green Lodge Karina 4 5:01:00 17.6, 14.5 15.95 35, 38, 44 (Avg:41)
90 Elizabeth Rooney Kelkette Park Dominic 5 5:04:00 17.6, 14.2 15.79 36, 40, 46 (Avg:43)
82 Sandy Horton Crystal Clear 6 5:09:00 16.4, 14.7 15.53 36, 38, 48 (Avg:43)
88 Brian Keep Doran Park Zatory 7 5:42:00 14.0, 14.0 14.04 36, 46, 47 (Avg:46)
87 Rex Telford Bullet 7 5:42:00 14.0, 14.0 14.04 36, 40, 48 (Avg:44)
85 Ron Leggett Lionel 9 6:01:00 12.6, 14.0 13.30 37, 42, 48 (Avg:45)
83 Darryl Martin Wongarra Smoky Diamond 9 6:01:00 11.9, 14.9 13.30 37, 48, 52 (Avg:50)
86 Rod Mills Ben 11 6:18:00 13.4, 11.9 12.70 35, 40, 49 (Avg:44)
91 Ian Booth Chanal Nazita 12 6:42:00 12.4, 11.4 11.94 35, 39, 57 (Avg:48)
Middleweight
15 Julia Gauci Toffee 1 3:17:00 22.8, 26.0 24.37 31, 38, 42 (Avg:40)
2 Terry Wignell Meadow View Ballad 2 3:47:00 19.0, 23.7 21.15 31, 35, 37 (Avg:36)
10 Dianne Tobin Truscott 3 3:49:00 21.6, 20.3 20.96 39, 43, 46 (Avg:44)
7 Catherine Muir Colhaven Dancing Lite 4 4:49:00 19.1, 14.6 16.61 33, 35, 45 (Avg:40)
9 Wendy Bootle Fairview Egyptian Mirage 5 4:51:00 10.3, 40.6 16.49 31, 49, 60 (Avg:54)
6 Alan Salter Aminya Nazelle 6 5:07:00 16.9, 14.5 15.64 36, 39, 52 (Avg:45)
13 Rachael Laidlaw Sharahd Houdini 7 5:38:00 16.1, 12.6 14.20 34, 39, 48 (Avg:43)
12 Jim Maffett Kyup Queen 8 5:42:00 14.0, 14.0 14.04 38, 38, 49 (Avg:43)
3 Anne Wilson Tara 9 6:18:00 13.5, 11.9 12.70 31, 44, 50 (Avg:47)
5 Hans Peuker Robian Kimehlish 10 6:42:00 13.3, 10.8 11.94 34, 35, 40 (Avg:37)
16 Keith Preston Misty 10 6:42:00 13.4, 10.7 11.94 29, 36, 44 (Avg:40)
17 Cathy Preston Kelkette Park Keira 10 6:42:00 13.4, 10.7 11.94 35, 43, 53 (Avg:48)
14 Bill Petzke Kelkette Park Freedom 13 6:46:00 12.4, 11.2 11.82 33, 38, 40 (Avg:39)
11 Lisa Stagg Belle 14 6:51:00 12.3, 11.1 11.68 36, 47, 47 (Avg:47)
4 Ken Bradley Rowallan Amanda 15 6:52:00 11.8, 11.4 11.65 35, 39, 39 (Avg:39)
8 Melva Keep Doran Park Minder Lame L2 0:00:00 17.7, 42.1 - 34, 41, 58 (Avg:49)
1 Louise Lewis Kasara Zeus Lame L2 0:00:00 22.0, 20.8 - 29, 38, 45 (Avg:41)
18 Henry Perry Seekee Lame L2 0:00:00 11.5, 10.7 - 26, 38, 41 (Avg:39)
Lightweight
123 Paul Drayton Clovelly Park Ambassador 1 4:25:00 19.6, 16.7 18.11 26, 36, 40 (Avg:38)
127 Karen Humphrey Pete 1 4:25:00 14.0, 25.5 18.11 29, 38, 42 (Avg:40)
136 Kathy Maffett Grassmere Silver Ray 3 4:44:00 18.0, 15.8 16.90 30, 36, 43 (Avg:39)
121 Joyce Pilkington Halls Viraq 4 4:51:00 16.7, 16.2 16.49 32, 33, 28 (Avg:30)
124 Stephen Humphrey Clovelly Park Tamara 5 5:01:00 17.6, 14.5 15.95 31, 39, 47 (Avg:43)
125 June Kenton El Shahb Elagance 6 5:02:00 15.9, 15.7 15.89 36, 41, 58 (Avg:49)
133 Christine Schepisi Kellkette Park Silver Echo 7 5:04:00 17.5, 14.3 15.79 50, 38, 44 (Avg:41)
126 Kylie Whitelaw Daley 8 5:42:00 14.0, 14.0 14.04 46, 40, 43 (Avg:41)
132 Sandy Pump Goldrush Rossington 9 6:18:00 13.4, 12.0 12.70 35, 42, 49 (Avg:45)
130 Deborah McCarthy Allira Park Darkside of the Moon 10 6:22:00 11.9, 13.1 12.57 42, 46, 47 (Avg:46)
131 Kylie Fraser Allira Park Mzuri Star 11 6:22:01 11.9, 13.1 12.56 32, 34, 40 (Avg:37)
135 Sharlene Davis Aratar El Samir 12 6:23:00 12.3, 12.7 12.53 40, 41, 47 (Avg:44)
129 Jody Gavalakis Jordan 13 6:52:00 10.6, 12.9 11.65 29, 36, 47 (Avg:41)
134 Kerry-Ann Brown Koorana Fame 14 7:10:00 11.8, 10.5 11.16 40, 43, 56 (Avg:49)
122 Jennifer Pitman Canyonleigh Girolamo 15 7:13:00 13.5, 9.3 11.09 36, 38, 45 (Avg:41)
128 Janet Hunter El-Shameen Widthdrawn L2 0:00:00 - - 34, 35, 43 (Avg:39)
Junior
175 Emily Rogers Durango Zenoa 1 3:09:00 22.4, 29.2 25.40 33, 40, 48 (Avg:44)
177 Kristie Taprell Atara Proud 1 3:09:00 22.4, 29.2 25.40 28, 34, 42 (Avg:38)
176 Naomi McGaffin Kelara Aladin 3 3:28:00 22.4, 23.7 23.08 34, 38, 43 (Avg:40)
178 Bobbie Jo Davis Painter 4 6:23:00 12.3, 12.7 12.53 32, 37, 40 (Avg:38)
161 Lara Peuker Varian 5 6:42:00 13.3, 10.8 11.94 33, 40, 40 (Avg:40)
174 Vanessa Perry Blue 6 7:10:00 11.5, 10.7 11.16 39, 48, 52 (Avg:50)
180 Justin Hibberson Count Mahsindh Heart Rate L2 0:00:00 22.4, 26.9 - 38, 48, 68 (Avg:58)
179 Rowena McLean Chester Lame L2 0:00:00 13.1, 9.6 - 26, 38, 56 (Avg:47)